sensor_id;sensor_type;location;lat;lon;timestamp;pressure;altitude;pressure_sealevel;temperature;humidity
64841;BME280;51307;52.162;7.560;2023-02-21T00:00:15;101352.31;;;8.68;68.31
64841;BME280;51307;52.162;7.560;2023-02-21T00:02:59;101363.16;;;8.46;68.72
64841;BME280;51307;52.162;7.560;2023-02-21T00:05:44;101352.91;;;8.20;69.46
64841;BME280;51307;52.162;7.560;2023-02-21T00:08:28;101345.94;;;8.29;69.26
64841;BME280;51307;52.162;7.560;2023-02-21T00:11:12;101344.63;;;8.44;68.93
64841;BME280;51307;52.162;7.560;2023-02-21T00:13:56;101349.44;;;8.50;68.87
64841;BME280;51307;52.162;7.560;2023-02-21T00:16:41;101335.69;;;8.55;68.63
64841;BME280;51307;52.162;7.560;2023-02-21T00:19:25;101355.59;;;8.20;69.07
64841;BME280;51307;52.162;7.560;2023-02-21T00:22:09;101344.19;;;8.39;68.95
64841;BME280;51307;52.162;7.560;2023-02-21T00:24:52;101340.69;;;8.38;68.70
64841;BME280;51307;52.162;7.560;2023-02-21T00:27:37;101355.94;;;8.36;68.87
64841;BME280;51307;52.162;7.560;2023-02-21T00:30:21;101340.13;;;8.45;68.99
64841;BME280;51307;52.162;7.560;2023-02-21T00:33:05;101346.88;;;8.49;68.48
64841;BME280;51307;52.162;7.560;2023-02-21T00:35:49;101343.28;;;8.29;69.23
64841;BME280;51307;52.162;7.560;2023-02-21T00:38:36;101346.16;;;8.68;68.21
64841;BME280;51307;52.162;7.560;2023-02-21T00:41:21;101336.22;;;8.49;68.54
64841;BME280;51307;52.162;7.560;2023-02-21T00:44:05;101332.75;;;8.89;67.70
64841;BME280;51307;52.162;7.560;2023-02-21T00:46:48;101341.91;;;8.34;68.76
64841;BME280;51307;52.162;7.560;2023-02-21T00:49:32;101334.72;;;8.56;68.57
64841;BME280;51307;52.162;7.560;2023-02-21T00:52:16;101346.94;;;8.58;68.37
64841;BME280;51307;52.162;7.560;2023-02-21T00:55:01;101342.78;;;8.75;68.09
64841;BME280;51307;52.162;7.560;2023-02-21T00:57:45;101338.97;;;8.37;69.03
64841;BME280;51307;52.162;7.560;2023-02-21T01:00:28;101338.66;;;8.31;69.13
64841;BME280;51307;52.162;7.560;2023-02-21T01:03:13;101333.88;;;8.86;67.87
64841;BME280;51307;52.162;7.560;2023-02-21T01:05:57;101333.66;;;8.37;68.79
64841;BME280;51307;52.162;7.560;2023-02-21T01:08:43;101326.63;;;8.67;68.31
64841;BME280;51307;52.162;7.560;2023-02-21T01:11:28;101336.66;;;8.54;68.41
64841;BME280;51307;52.162;7.560;2023-02-21T01:14:13;101328.91;;;8.72;67.92
64841;BME280;51307;52.162;7.560;2023-02-21T01:16:57;101328.94;;;8.51;68.70
64841;BME280;51307;52.162;7.560;2023-02-21T01:19:42;101342.56;;;8.27;69.63
64841;BME280;51307;52.162;7.560;2023-02-21T01:22:27;101336.59;;;8.34;69.20
64841;BME280;51307;52.162;7.560;2023-02-21T01:25:11;101340.50;;;8.30;69.16
64841;BME280;51307;52.162;7.560;2023-02-21T01:27:55;101337.75;;;8.41;69.28
64841;BME280;51307;52.162;7.560;2023-02-21T01:30:40;101333.97;;;8.44;69.16
64841;BME280;51307;52.162;7.560;2023-02-21T01:33:24;101334.91;;;8.64;68.32
64841;BME280;51307;52.162;7.560;2023-02-21T01:36:08;101328.22;;;8.49;69.28
64841;BME280;51307;52.162;7.560;2023-02-21T01:38:52;101327.06;;;8.41;69.24
64841;BME280;51307;52.162;7.560;2023-02-21T01:41:37;101327.09;;;8.51;68.79
64841;BME280;51307;52.162;7.560;2023-02-21T01:47:15;101330.88;;;8.49;69.15
64841;BME280;51307;52.162;7.560;2023-02-21T01:50:03;101327.53;;;8.47;68.88
64841;BME280;51307;52.162;7.560;2023-02-21T01:52:50;101331.50;;;8.62;68.49
64841;BME280;51307;52.162;7.560;2023-02-21T01:55:38;101322.38;;;8.55;68.74
64841;BME280;51307;52.162;7.560;2023-02-21T01:58:26;101323.97;;;8.77;68.33
64841;BME280;51307;52.162;7.560;2023-02-21T02:01:20;101318.56;;;8.48;69.16
64841;BME280;51307;52.162;7.560;2023-02-21T02:04:06;101314.38;;;8.65;68.70
64841;BME280;51307;52.162;7.560;2023-02-21T02:06:51;101318.03;;;8.64;68.58
64841;BME280;51307;52.162;7.560;2023-02-21T02:09:34;101302.97;;;8.53;69.34
64841;BME280;51307;52.162;7.560;2023-02-21T02:18:38;101297.19;;;8.79;68.29
64841;BME280;51307;52.162;7.560;2023-02-21T02:24:38;101306.00;;;8.69;68.58
64841;BME280;51307;52.162;7.560;2023-02-21T02:27:24;101317.63;;;8.28;69.71
64841;BME280;51307;52.162;7.560;2023-02-21T02:32:57;101315.78;;;8.59;69.06
64841;BME280;51307;52.162;7.560;2023-02-21T02:35:45;101310.53;;;8.79;68.31
64841;BME280;51307;52.162;7.560;2023-02-21T02:38:32;101324.38;;;8.32;69.62
64841;BME280;51307;52.162;7.560;2023-02-21T02:46:28;101313.38;;;8.87;68.09
64841;BME280;51307;52.162;7.560;2023-02-21T02:49:00;101313.38;;;8.56;68.98
64841;BME280;51307;52.162;7.560;2023-02-21T02:51:27;101320.66;;;8.85;68.24
64841;BME280;51307;52.162;7.560;2023-02-21T02:53:53;101315.34;;;8.64;68.59
64841;BME280;51307;52.162;7.560;2023-02-21T02:56:18;101324.88;;;8.25;69.89
64841;BME280;51307;52.162;7.560;2023-02-21T02:59:00;101317.75;;;8.26;69.97
64841;BME280;51307;52.162;7.560;2023-02-21T03:17:38;101318.56;;;8.48;69.61
64841;BME280;51307;52.162;7.560;2023-02-21T03:20:07;101329.09;;;8.28;69.96
64841;BME280;51307;52.162;7.560;2023-02-21T03:22:34;101313.69;;;8.63;69.26
64841;BME280;51307;52.162;7.560;2023-02-21T03:25:02;101320.97;;;8.30;70.33
64841;BME280;51307;52.162;7.560;2023-02-21T03:27:30;101322.25;;;8.66;68.85
64841;BME280;51307;52.162;7.560;2023-02-21T03:30:00;101318.28;;;8.51;69.69
64841;BME280;51307;52.162;7.560;2023-02-21T03:32:34;101324.28;;;8.84;68.62
64841;BME280;51307;52.162;7.560;2023-02-21T03:35:03;101312.22;;;8.49;69.50
64841;BME280;51307;52.162;7.560;2023-02-21T03:37:41;101319.72;;;8.65;68.81
64841;BME280;51307;52.162;7.560;2023-02-21T03:40:10;101325.16;;;8.53;69.57
64841;BME280;51307;52.162;7.560;2023-02-21T03:42:36;101332.22;;;8.64;69.11
64841;BME280;51307;52.162;7.560;2023-02-21T03:45:02;101344.59;;;8.65;68.98
64841;BME280;51307;52.162;7.560;2023-02-21T03:47:27;101332.91;;;8.66;69.45
64841;BME280;51307;52.162;7.560;2023-02-21T03:49:53;101342.13;;;8.52;69.61
64841;BME280;51307;52.162;7.560;2023-02-21T03:52:18;101338.97;;;8.37;69.85
64841;BME280;51307;52.162;7.560;2023-02-21T03:54:44;101334.25;;;8.41;69.76
64841;BME280;51307;52.162;7.560;2023-02-21T03:57:09;101342.63;;;8.36;69.78
64841;BME280;51307;52.162;7.560;2023-02-21T03:59:35;101341.66;;;8.37;70.13
64841;BME280;51307;52.162;7.560;2023-02-21T04:02:01;101340.59;;;8.50;69.87
64841;BME280;51307;52.162;7.560;2023-02-21T04:04:26;101345.63;;;8.22;70.34
64841;BME280;51307;52.162;7.560;2023-02-21T04:06:52;101343.03;;;8.63;69.25
64841;BME280;51307;52.162;7.560;2023-02-21T04:09:17;101344.19;;;8.18;70.42
64841;BME280;51307;52.162;7.560;2023-02-21T04:11:44;101344.41;;;8.57;69.58
64841;BME280;51307;52.162;7.560;2023-02-21T04:14:10;101345.75;;;8.20;70.49
64841;BME280;51307;52.162;7.560;2023-02-21T04:16:35;101352.66;;;8.54;69.45
64841;BME280;51307;52.162;7.560;2023-02-21T04:19:01;101348.91;;;8.35;70.03
64841;BME280;51307;52.162;7.560;2023-02-21T04:21:27;101352.97;;;8.30;70.33
64841;BME280;51307;52.162;7.560;2023-02-21T04:23:52;101351.56;;;8.87;68.87
64841;BME280;51307;52.162;7.560;2023-02-21T04:26:18;101356.00;;;8.46;69.58
64841;BME280;51307;52.162;7.560;2023-02-21T04:28:43;101340.06;;;8.56;69.52
64841;BME280;51307;52.162;7.560;2023-02-21T04:31:09;101350.47;;;8.69;69.33
64841;BME280;51307;52.162;7.560;2023-02-21T04:33:35;101350.19;;;8.10;70.93
64841;BME280;51307;52.162;7.560;2023-02-21T04:36:00;101355.50;;;8.31;70.51
64841;BME280;51307;52.162;7.560;2023-02-21T04:38:26;101352.22;;;8.49;69.86
64841;BME280;51307;52.162;7.560;2023-02-21T04:40:51;101351.59;;;8.35;70.09
64841;BME280;51307;52.162;7.560;2023-02-21T04:43:17;101351.09;;;8.51;70.05
64841;BME280;51307;52.162;7.560;2023-02-21T04:45:42;101344.41;;;8.57;69.66
64841;BME280;51307;52.162;7.560;2023-02-21T04:48:08;101341.38;;;8.71;69.12
64841;BME280;51307;52.162;7.560;2023-02-21T04:50:33;101343.91;;;8.73;69.04
64841;BME280;51307;52.162;7.560;2023-02-21T04:52:59;101340.59;;;8.50;69.65
64841;BME280;51307;52.162;7.560;2023-02-21T04:55:24;101339.88;;;8.48;70.08
64841;BME280;51307;52.162;7.560;2023-02-21T04:57:50;101330.66;;;8.62;69.54
64841;BME280;51307;52.162;7.560;2023-02-21T05:00:15;101333.22;;;8.73;69.15
64841;BME280;51307;52.162;7.560;2023-02-21T05:02:42;101337.63;;;8.53;69.56
64841;BME280;51307;52.162;7.560;2023-02-21T05:05:08;101338.81;;;8.60;69.31
64841;BME280;51307;52.162;7.560;2023-02-21T05:07:34;101343.66;;;8.76;69.04
64841;BME280;51307;52.162;7.560;2023-02-21T05:10:00;101352.91;;;8.41;69.90
64841;BME280;51307;52.162;7.560;2023-02-21T05:12:25;101346.50;;;8.53;69.73
64841;BME280;51307;52.162;7.560;2023-02-21T05:14:52;101352.59;;;8.65;69.19
64841;BME280;51307;52.162;7.560;2023-02-21T05:17:17;101348.69;;;8.69;69.25
64841;BME280;51307;52.162;7.560;2023-02-21T05:19:45;101346.56;;;8.73;68.94
64841;BME280;51307;52.162;7.560;2023-02-21T05:22:11;101338.78;;;8.50;69.67
64841;BME280;51307;52.162;7.560;2023-02-21T05:24:40;101343.34;;;8.69;69.51
64841;BME280;51307;52.162;7.560;2023-02-21T05:27:07;101343.13;;;8.51;69.83
64841;BME280;51307;52.162;7.560;2023-02-21T05:29:36;101342.03;;;8.64;69.49
64841;BME280;51307;52.162;7.560;2023-02-21T05:32:02;101351.84;;;8.53;69.80
64841;BME280;51307;52.162;7.560;2023-02-21T05:34:28;101337.63;;;8.84;69.05
64841;BME280;51307;52.162;7.560;2023-02-21T05:36:53;101335.34;;;8.69;69.44
64841;BME280;51307;52.162;7.560;2023-02-21T05:39:19;101336.84;;;8.31;70.86
64841;BME280;51307;52.162;7.560;2023-02-21T05:41:49;101335.38;;;8.48;69.96
64841;BME280;51307;52.162;7.560;2023-02-21T05:44:16;101337.56;;;8.33;70.68
64841;BME280;51307;52.162;7.560;2023-02-21T05:46:42;101338.16;;;8.37;70.95
64841;BME280;51307;52.162;7.560;2023-02-21T05:49:08;101327.81;;;8.44;70.79
64841;BME280;51307;52.162;7.560;2023-02-21T05:51:39;101335.19;;;8.61;70.28
64841;BME280;51307;52.162;7.560;2023-02-21T05:54:08;101329.09;;;8.49;70.65
64841;BME280;51307;52.162;7.560;2023-02-21T05:56:38;101333.47;;;8.60;70.31
64841;BME280;51307;52.162;7.560;2023-02-21T05:59:05;101329.53;;;8.54;70.43
64841;BME280;51307;52.162;7.560;2023-02-21T06:01:30;101325.50;;;8.39;71.11
64841;BME280;51307;52.162;7.560;2023-02-21T06:03:56;101326.31;;;8.30;71.61
64841;BME280;51307;52.162;7.560;2023-02-21T06:06:21;101317.50;;;8.39;71.02
64841;BME280;51307;52.162;7.560;2023-02-21T06:08:48;101322.53;;;8.63;70.46
64841;BME280;51307;52.162;7.560;2023-02-21T06:11:21;101327.41;;;8.27;71.50
64841;BME280;51307;52.162;7.560;2023-02-21T06:13:49;101324.91;;;8.04;72.23
64841;BME280;51307;52.162;7.560;2023-02-21T06:16:15;101327.16;;;8.30;71.31
64841;BME280;51307;52.162;7.560;2023-02-21T06:18:40;101324.25;;;8.12;72.47
64841;BME280;51307;52.162;7.560;2023-02-21T06:21:06;101324.78;;;8.06;72.21
64841;BME280;51307;52.162;7.560;2023-02-21T06:23:31;101327.19;;;8.09;72.38
64841;BME280;51307;52.162;7.560;2023-02-21T06:25:57;101319.69;;;8.55;70.94
64841;BME280;51307;52.162;7.560;2023-02-21T06:28:27;101317.25;;;8.42;71.15
64841;BME280;51307;52.162;7.560;2023-02-21T06:30:52;101320.72;;;8.33;71.35
64841;BME280;51307;52.162;7.560;2023-02-21T06:33:18;101314.53;;;8.32;71.77
64841;BME280;51307;52.162;7.560;2023-02-21T06:35:43;101311.53;;;8.47;71.06
64841;BME280;51307;52.162;7.560;2023-02-21T06:38:09;101313.78;;;8.51;70.92
64841;BME280;51307;52.162;7.560;2023-02-21T06:40:34;101319.38;;;8.48;71.16
64841;BME280;51307;52.162;7.560;2023-02-21T06:43:00;101315.81;;;8.38;71.10
64841;BME280;51307;52.162;7.560;2023-02-21T06:45:25;101330.88;;;8.49;70.73
64841;BME280;51307;52.162;7.560;2023-02-21T06:47:51;101326.66;;;8.46;70.90
64841;BME280;51307;52.162;7.560;2023-02-21T06:50:16;101318.44;;;8.28;71.26
64841;BME280;51307;52.162;7.560;2023-02-21T06:52:42;101328.94;;;8.20;71.70
64841;BME280;51307;52.162;7.560;2023-02-21T06:55:07;101325.94;;;8.13;71.91
64841;BME280;51307;52.162;7.560;2023-02-21T06:57:33;101330.06;;;8.27;71.20
64841;BME280;51307;52.162;7.560;2023-02-21T06:59:58;101333.28;;;8.21;71.57
64841;BME280;51307;52.162;7.560;2023-02-21T07:02:24;101335.16;;;8.30;71.40
64841;BME280;51307;52.162;7.560;2023-02-21T07:04:49;101325.13;;;8.44;71.36
64841;BME280;51307;52.162;7.560;2023-02-21T07:07:15;101325.94;;;8.34;71.43
64841;BME280;51307;52.162;7.560;2023-02-21T07:09:40;101330.03;;;8.17;71.98
64841;BME280;51307;52.162;7.560;2023-02-21T07:12:06;101326.00;;;8.23;71.72
64841;BME280;51307;52.162;7.560;2023-02-21T07:14:33;101331.44;;;8.42;71.32
64841;BME280;51307;52.162;7.560;2023-02-21T07:16:58;101329.84;;;8.30;71.38
64841;BME280;51307;52.162;7.560;2023-02-21T07:19:24;101336.47;;;8.15;71.90
64841;BME280;51307;52.162;7.560;2023-02-21T07:21:49;101335.16;;;8.30;71.62
64841;BME280;51307;52.162;7.560;2023-02-21T07:24:15;101334.53;;;7.96;72.63
64841;BME280;51307;52.162;7.560;2023-02-21T07:26:41;101342.84;;;8.23;71.89
64841;BME280;51307;52.162;7.560;2023-02-21T07:29:06;101330.47;;;8.44;71.36
64841;BME280;51307;52.162;7.560;2023-02-21T07:31:31;101344.78;;;8.21;71.71
64841;BME280;51307;52.162;7.560;2023-02-21T07:33:58;101351.16;;;8.09;71.79
64841;BME280;51307;52.162;7.560;2023-02-21T07:36:24;101346.44;;;8.13;72.08
64841;BME280;51307;52.162;7.560;2023-02-21T07:38:49;101349.75;;;8.26;71.94
64841;BME280;51307;52.162;7.560;2023-02-21T07:41:15;101351.81;;;8.44;71.56
64841;BME280;51307;52.162;7.560;2023-02-21T07:43:41;101343.47;;;8.37;71.59
64841;BME280;51307;52.162;7.560;2023-02-21T07:46:11;101352.78;;;8.21;72.22
64841;BME280;51307;52.162;7.560;2023-02-21T07:48:37;101352.28;;;8.28;71.98
64841;BME280;51307;52.162;7.560;2023-02-21T07:51:04;101352.28;;;8.06;72.70
64841;BME280;51307;52.162;7.560;2023-02-21T07:53:30;101352.00;;;8.31;72.10
64841;BME280;51307;52.162;7.560;2023-02-21T07:55:56;101352.09;;;7.98;72.26
64841;BME280;51307;52.162;7.560;2023-02-21T07:58:21;101348.28;;;8.22;72.07
64841;BME280;51307;52.162;7.560;2023-02-21T08:00:47;101354.22;;;8.25;72.01
64841;BME280;51307;52.162;7.560;2023-02-21T08:03:13;101367.28;;;8.07;72.80
64841;BME280;51307;52.162;7.560;2023-02-21T08:05:39;101362.75;;;8.19;72.33
64841;BME280;51307;52.162;7.560;2023-02-21T08:08:08;101360.28;;;8.28;72.30
64841;BME280;51307;52.162;7.560;2023-02-21T08:10:35;101360.19;;;8.18;72.27
64841;BME280;51307;52.162;7.560;2023-02-21T08:13:01;101356.69;;;8.38;72.10
64841;BME280;51307;52.162;7.560;2023-02-21T08:15:26;101365.91;;;8.34;71.99
64841;BME280;51307;52.162;7.560;2023-02-21T08:17:52;101364.69;;;8.38;71.91
64841;BME280;51307;52.162;7.560;2023-02-21T08:20:18;101368.53;;;8.03;73.07
64841;BME280;51307;52.162;7.560;2023-02-21T08:22:44;101367.22;;;8.19;72.72
64841;BME280;51307;52.162;7.560;2023-02-21T08:25:11;101367.25;;;8.29;72.52
64841;BME280;51307;52.162;7.560;2023-02-21T08:27:42;101370.56;;;8.42;71.85
64841;BME280;51307;52.162;7.560;2023-02-21T08:30:09;101369.69;;;8.32;72.17
64841;BME280;51307;52.162;7.560;2023-02-21T08:32:35;101373.03;;;8.55;71.54
64841;BME280;51307;52.162;7.560;2023-02-21T08:35:01;101377.16;;;8.38;72.02
64841;BME280;51307;52.162;7.560;2023-02-21T08:37:28;101371.16;;;8.24;72.50
64841;BME280;51307;52.162;7.560;2023-02-21T08:39:57;101369.56;;;8.33;72.02
64841;BME280;51307;52.162;7.560;2023-02-21T08:42:23;101381.25;;;8.42;71.92
64841;BME280;51307;52.162;7.560;2023-02-21T08:44:48;101373.56;;;8.49;71.77
64841;BME280;51307;52.162;7.560;2023-02-21T08:47:15;101371.38;;;8.33;72.15
64841;BME280;51307;52.162;7.560;2023-02-21T08:49:48;101370.97;;;8.37;71.95
64841;BME280;51307;52.162;7.560;2023-02-21T08:52:15;101382.16;;;8.31;71.92
64841;BME280;51307;52.162;7.560;2023-02-21T08:54:44;101383.03;;;8.32;71.90
64841;BME280;51307;52.162;7.560;2023-02-21T08:57:09;101379.13;;;8.36;71.79
64841;BME280;51307;52.162;7.560;2023-02-21T08:59:39;101387.13;;;8.15;73.10
64841;BME280;51307;52.162;7.560;2023-02-21T09:02:14;101382.38;;;8.39;72.25
64841;BME280;51307;52.162;7.560;2023-02-21T09:04:40;101389.47;;;8.29;72.01
64841;BME280;51307;52.162;7.560;2023-02-21T09:07:06;101387.94;;;8.36;72.20
64841;BME280;51307;52.162;7.560;2023-02-21T09:09:31;101386.88;;;8.49;71.93
64841;BME280;51307;52.162;7.560;2023-02-21T09:11:57;101384.72;;;8.33;72.08
64841;BME280;51307;52.162;7.560;2023-02-21T09:14:23;101381.91;;;8.34;72.05
64841;BME280;51307;52.162;7.560;2023-02-21T09:16:48;101382.16;;;8.31;72.32
64841;BME280;51307;52.162;7.560;2023-02-21T09:19:14;101381.25;;;8.73;71.11
64841;BME280;51307;52.162;7.560;2023-02-21T09:21:45;101375.06;;;8.63;71.18
64841;BME280;51307;52.162;7.560;2023-02-21T09:24:12;101384.59;;;8.34;72.27
64841;BME280;51307;52.162;7.560;2023-02-21T09:26:37;101378.69;;;8.62;71.65
64841;BME280;51307;52.162;7.560;2023-02-21T09:29:03;101373.06;;;8.65;71.33
64841;BME280;51307;52.162;7.560;2023-02-21T09:31:29;101376.69;;;8.54;71.63
64841;BME280;51307;52.162;7.560;2023-02-21T09:33:54;101376.81;;;8.31;71.71
64841;BME280;51307;52.162;7.560;2023-02-21T09:36:20;101374.09;;;8.42;71.61
64841;BME280;51307;52.162;7.560;2023-02-21T09:38:50;101373.41;;;8.19;72.50
64841;BME280;51307;52.162;7.560;2023-02-21T09:41:19;101372.13;;;8.45;72.05
64841;BME280;51307;52.162;7.560;2023-02-21T09:43:51;101366.28;;;8.51;71.63
64841;BME280;51307;52.162;7.560;2023-02-21T09:46:36;101361.16;;;8.38;71.78
64841;BME280;51307;52.162;7.560;2023-02-21T09:49:11;101369.94;;;8.29;71.97
64841;BME280;51307;52.162;7.560;2023-02-21T09:51:39;101364.41;;;8.20;72.35
64841;BME280;51307;52.162;7.560;2023-02-21T09:54:21;101365.53;;;8.70;71.13
64841;BME280;51307;52.162;7.560;2023-02-21T09:56:48;101362.72;;;8.40;71.69
64841;BME280;51307;52.162;7.560;2023-02-21T09:59:15;101369.47;;;8.45;71.82
64841;BME280;51307;52.162;7.560;2023-02-21T10:07:40;101371.09;;;8.57;71.33
64841;BME280;51307;52.162;7.560;2023-02-21T10:10:17;101368.31;;;8.68;71.06
64841;BME280;51307;52.162;7.560;2023-02-21T10:12:51;101376.50;;;8.76;70.68
64841;BME280;51307;52.162;7.560;2023-02-21T10:15:41;101369.78;;;8.82;70.50
64841;BME280;51307;52.162;7.560;2023-02-21T10:18:12;101378.66;;;8.52;71.16
64841;BME280;51307;52.162;7.560;2023-02-21T10:20:54;101381.63;;;8.58;71.16
64841;BME280;51307;52.162;7.560;2023-02-21T10:23:44;101383.56;;;8.56;71.15
64841;BME280;51307;52.162;7.560;2023-02-21T10:26:24;101390.00;;;8.54;71.30
64841;BME280;51307;52.162;7.560;2023-02-21T10:28:51;101374.56;;;8.79;70.91
64841;BME280;51307;52.162;7.560;2023-02-21T10:33:49;101382.00;;;8.54;71.09
64841;BME280;51307;52.162;7.560;2023-02-21T10:36:21;101378.09;;;8.58;70.74
64841;BME280;51307;52.162;7.560;2023-02-21T10:38:58;101391.38;;;8.69;70.90
64841;BME280;51307;52.162;7.560;2023-02-21T10:41:29;101392.19;;;8.70;70.51
64841;BME280;51307;52.162;7.560;2023-02-21T10:44:03;101378.88;;;8.80;70.26
64841;BME280;51307;52.162;7.560;2023-02-21T10:46:50;101386.47;;;8.74;70.44
64841;BME280;51307;52.162;7.560;2023-02-21T10:49:25;101389.03;;;8.55;70.96
64841;BME280;51307;52.162;7.560;2023-02-21T10:52:19;101388.94;;;8.87;70.14
64841;BME280;51307;52.162;7.560;2023-02-21T10:55:05;101388.28;;;8.74;70.52
64841;BME280;51307;52.162;7.560;2023-02-21T10:57:39;101396.94;;;8.66;70.46
64841;BME280;51307;52.162;7.560;2023-02-21T11:00:07;101388.59;;;8.81;70.55
64841;BME280;51307;52.162;7.560;2023-02-21T11:02:37;101386.97;;;8.58;70.64
64841;BME280;51307;52.162;7.560;2023-02-21T11:07:36;101404.66;;;8.90;69.86
64841;BME280;51307;52.162;7.560;2023-02-21T11:10:41;101399.63;;;8.66;70.35
64841;BME280;51307;52.162;7.560;2023-02-21T11:15:34;101393.09;;;8.80;69.81
64841;BME280;51307;52.162;7.560;2023-02-21T11:18:21;101394.41;;;8.86;70.05
64841;BME280;51307;52.162;7.560;2023-02-21T11:20:47;101385.88;;;8.92;69.99
64841;BME280;51307;52.162;7.560;2023-02-21T11:23:48;101395.28;;;8.65;70.60
64841;BME280;51307;52.162;7.560;2023-02-21T11:26:18;101398.78;;;8.66;70.49
64841;BME280;51307;52.162;7.560;2023-02-21T11:28:46;101397.41;;;8.71;70.47
64841;BME280;51307;52.162;7.560;2023-02-21T11:33:56;101395.69;;;8.70;70.39
64841;BME280;51307;52.162;7.560;2023-02-21T11:36:28;101382.94;;;8.95;69.59
64841;BME280;51307;52.162;7.560;2023-02-21T11:41:50;101381.25;;;9.04;69.58
64841;BME280;51307;52.162;7.560;2023-02-21T11:52:21;101366.94;;;8.74;70.29
64841;BME280;51307;52.162;7.560;2023-02-21T11:54:47;101364.31;;;8.84;70.06
64841;BME280;51307;52.162;7.560;2023-02-21T11:57:42;101356.41;;;9.03;69.21
64841;BME280;51307;52.162;7.560;2023-02-21T12:00:35;101353.44;;;8.66;70.44
64841;BME280;51307;52.162;7.560;2023-02-21T12:28:30;101349.88;;;8.86;69.57
64841;BME280;51307;52.162;7.560;2023-02-21T12:33:47;101345.94;;;8.90;69.93
64841;BME280;51307;52.162;7.560;2023-02-21T12:36:39;101336.88;;;9.03;69.42
64841;BME280;51307;52.162;7.560;2023-02-21T12:39:55;101347.59;;;8.82;69.87
64841;BME280;51307;52.162;7.560;2023-02-21T12:47:16;101339.16;;;8.46;70.43
64841;BME280;51307;52.162;7.560;2023-02-21T12:49:57;101340.06;;;8.56;69.83
64841;BME280;51307;52.162;7.560;2023-02-21T12:52:40;101333.75;;;8.57;70.03
64841;BME280;51307;52.162;7.560;2023-02-21T12:55:14;101336.03;;;8.71;69.42
64841;BME280;51307;52.162;7.560;2023-02-21T13:00:19;101333.28;;;8.83;69.08
64841;BME280;51307;52.162;7.560;2023-02-21T13:06:01;101318.63;;;8.77;69.10
64841;BME280;51307;52.162;7.560;2023-02-21T13:08:35;101332.28;;;8.84;69.03
64841;BME280;51307;52.162;7.560;2023-02-21T13:14:16;101325.53;;;8.80;69.47
64841;BME280;51307;52.162;7.560;2023-02-21T13:16:42;101317.19;;;8.63;69.66
64841;BME280;51307;52.162;7.560;2023-02-21T13:19:11;101318.53;;;8.79;69.07
64841;BME280;51307;52.162;7.560;2023-02-21T13:29:51;101308.50;;;8.61;69.31
64841;BME280;51307;52.162;7.560;2023-02-21T13:32:23;101301.13;;;8.84;68.74
64841;BME280;51307;52.162;7.560;2023-02-21T13:34:58;101300.38;;;8.72;68.90
64841;BME280;51307;52.162;7.560;2023-02-21T13:37:28;101298.06;;;8.58;69.69
64841;BME280;51307;52.162;7.560;2023-02-21T13:39:59;101301.81;;;8.46;69.70
64841;BME280;51307;52.162;7.560;2023-02-21T13:42:35;101303.31;;;8.69;69.20
64841;BME280;51307;52.162;7.560;2023-02-21T13:45:12;101290.41;;;8.34;69.65
64841;BME280;51307;52.162;7.560;2023-02-21T13:55:29;101291.91;;;8.57;69.29
64841;BME280;51307;52.162;7.560;2023-02-21T14:02:56;101293.34;;;8.31;69.68
64841;BME280;51307;52.162;7.560;2023-02-21T14:05:23;101287.56;;;8.66;69.12
64841;BME280;51307;52.162;7.560;2023-02-21T14:08:01;101285.47;;;8.60;69.23
64841;BME280;51307;52.162;7.560;2023-02-21T14:10:36;101288.34;;;8.88;68.32
64841;BME280;51307;52.162;7.560;2023-02-21T14:13:16;101292.72;;;8.89;67.98
64841;BME280;51307;52.162;7.560;2023-02-21T14:15:46;101287.81;;;8.94;67.91
64841;BME280;51307;52.162;7.560;2023-02-21T14:18:20;101288.13;;;8.60;68.72
64841;BME280;51307;52.162;7.560;2023-02-21T14:20:52;101284.22;;;8.64;68.62
64841;BME280;51307;52.162;7.560;2023-02-21T14:23:38;101279.66;;;8.86;68.22
64841;BME280;51307;52.162;7.560;2023-02-21T14:26:05;101282.78;;;8.60;69.26
64841;BME280;51307;52.162;7.560;2023-02-21T14:34:19;101279.06;;;8.82;68.54
64841;BME280;51307;52.162;7.560;2023-02-21T14:36:47;101275.88;;;8.88;68.47
64841;BME280;51307;52.162;7.560;2023-02-21T14:39:15;101271.53;;;8.97;68.40
64841;BME280;51307;52.162;7.560;2023-02-21T14:47:07;101277.97;;;8.95;68.51
64841;BME280;51307;52.162;7.560;2023-02-21T14:50:10;101268.47;;;9.12;68.09
64841;BME280;51307;52.162;7.560;2023-02-21T15:03:42;101275.88;;;8.98;68.25
64841;BME280;51307;52.162;7.560;2023-02-21T15:06:14;101271.00;;;9.13;68.11
64841;BME280;51307;52.162;7.560;2023-02-21T15:08:49;101276.03;;;8.87;69.25
64841;BME280;51307;52.162;7.560;2023-02-21T15:11:28;101271.81;;;9.04;68.44
64841;BME280;51307;52.162;7.560;2023-02-21T15:14:18;101271.22;;;8.90;68.90
64841;BME280;51307;52.162;7.560;2023-02-21T15:16:57;101273.50;;;8.95;68.80
64841;BME280;51307;52.162;7.560;2023-02-21T15:19:28;101274.34;;;8.96;68.63
64841;BME280;51307;52.162;7.560;2023-02-21T15:24:31;101278.56;;;8.98;69.17
64841;BME280;51307;52.162;7.560;2023-02-21T15:27:11;101277.16;;;8.94;69.10
64841;BME280;51307;52.162;7.560;2023-02-21T15:29:37;101274.38;;;9.05;68.53
64841;BME280;51307;52.162;7.560;2023-02-21T15:32:04;101277.34;;;9.22;68.22
64841;BME280;51307;52.162;7.560;2023-02-21T15:34:42;101277.16;;;8.94;68.90
64841;BME280;51307;52.162;7.560;2023-02-21T15:37:16;101273.78;;;9.02;68.85
64841;BME280;51307;52.162;7.560;2023-02-21T15:39:51;101280.53;;;8.96;69.17
64841;BME280;51307;52.162;7.560;2023-02-21T15:42:17;101269.28;;;9.12;68.49
64841;BME280;51307;52.162;7.560;2023-02-21T15:44:50;101267.59;;;8.91;68.83
64841;BME280;51307;52.162;7.560;2023-02-21T15:47:25;101265.09;;;9.09;68.19
64841;BME280;51307;52.162;7.560;2023-02-21T15:57:43;101266.50;;;9.23;68.04
64841;BME280;51307;52.162;7.560;2023-02-21T16:00:25;101263.97;;;9.32;67.89
64841;BME280;51307;52.162;7.560;2023-02-21T16:02:52;101262.69;;;8.97;68.59
64841;BME280;51307;52.162;7.560;2023-02-21T16:05:36;101269.56;;;8.99;68.68